sensor_id;sensor_type;location;lat;lon;timestamp;P1;durP1;ratioP1;P2;durP2;ratioP2
67776;SDS011;54576;52.020;5.536;2023-11-21T00:00:14;23.45;;;11.48;;
67776;SDS011;54576;52.020;5.536;2023-11-21T00:02:41;25.30;;;12.25;;
67776;SDS011;54576;52.020;5.536;2023-11-21T00:05:09;23.02;;;11.38;;
67776;SDS011;54576;52.020;5.536;2023-11-21T00:07:36;25.25;;;11.63;;
67776;SDS011;54576;52.020;5.536;2023-11-21T00:10:02;26.48;;;11.57;;
67776;SDS011;54576;52.020;5.536;2023-11-21T00:12:28;27.77;;;11.15;;
67776;SDS011;54576;52.020;5.536;2023-11-21T00:14:54;24.30;;;11.43;;
67776;SDS011;54576;52.020;5.536;2023-11-21T00:17:20;21.52;;;10.52;;
67776;SDS011;54576;52.020;5.536;2023-11-21T00:19:45;29.42;;;11.90;;
67776;SDS011;54576;52.020;5.536;2023-11-21T00:22:11;30.40;;;10.50;;
67776;SDS011;54576;52.020;5.536;2023-11-21T00:24:36;23.55;;;10.27;;
67776;SDS011;54576;52.020;5.536;2023-11-21T00:27:02;24.45;;;11.25;;
67776;SDS011;54576;52.020;5.536;2023-11-21T00:29:28;24.58;;;9.95;;
67776;SDS011;54576;52.020;5.536;2023-11-21T00:31:54;23.10;;;10.40;;
67776;SDS011;54576;52.020;5.536;2023-11-21T00:34:19;25.17;;;11.55;;
67776;SDS011;54576;52.020;5.536;2023-11-21T00:36:45;18.80;;;10.35;;
67776;SDS011;54576;52.020;5.536;2023-11-21T00:39:10;26.98;;;11.50;;
67776;SDS011;54576;52.020;5.536;2023-11-21T00:41:37;35.17;;;12.30;;
67776;SDS011;54576;52.020;5.536;2023-11-21T00:44:02;27.95;;;11.70;;
67776;SDS011;54576;52.020;5.536;2023-11-21T00:46:28;35.40;;;12.93;;
67776;SDS011;54576;52.020;5.536;2023-11-21T00:48:54;28.48;;;12.00;;
67776;SDS011;54576;52.020;5.536;2023-11-21T00:51:20;25.98;;;11.10;;
67776;SDS011;54576;52.020;5.536;2023-11-21T00:53:47;24.45;;;12.27;;
67776;SDS011;54576;52.020;5.536;2023-11-21T00:56:13;26.13;;;12.63;;
67776;SDS011;54576;52.020;5.536;2023-11-21T00:58:39;29.42;;;12.32;;
67776;SDS011;54576;52.020;5.536;2023-11-21T01:01:08;24.83;;;11.93;;
67776;SDS011;54576;52.020;5.536;2023-11-21T01:03:34;22.20;;;10.88;;
67776;SDS011;54576;52.020;5.536;2023-11-21T01:06:00;28.13;;;10.98;;
67776;SDS011;54576;52.020;5.536;2023-11-21T01:08:26;29.42;;;11.60;;
67776;SDS011;54576;52.020;5.536;2023-11-21T01:10:51;24.85;;;11.50;;
67776;SDS011;54576;52.020;5.536;2023-11-21T01:13:17;23.50;;;11.18;;
67776;SDS011;54576;52.020;5.536;2023-11-21T01:15:43;29.85;;;11.02;;
67776;SDS011;54576;52.020;5.536;2023-11-21T01:18:09;36.83;;;11.57;;
67776;SDS011;54576;52.020;5.536;2023-11-21T01:20:34;22.85;;;10.60;;
67776;SDS011;54576;52.020;5.536;2023-11-21T01:23:00;20.83;;;10.65;;
67776;SDS011;54576;52.020;5.536;2023-11-21T01:25:25;18.33;;;10.98;;
67776;SDS011;54576;52.020;5.536;2023-11-21T01:27:51;17.52;;;10.88;;
67776;SDS011;54576;52.020;5.536;2023-11-21T01:30:17;22.27;;;10.95;;
67776;SDS011;54576;52.020;5.536;2023-11-21T01:32:43;17.60;;;10.80;;
67776;SDS011;54576;52.020;5.536;2023-11-21T01:35:09;20.20;;;10.68;;
67776;SDS011;54576;52.020;5.536;2023-11-21T01:37:35;18.52;;;10.55;;
67776;SDS011;54576;52.020;5.536;2023-11-21T01:40:02;21.10;;;10.98;;
67776;SDS011;54576;52.020;5.536;2023-11-21T01:42:33;71.53;;;10.20;;
67776;SDS011;54576;52.020;5.536;2023-11-21T01:44:58;25.35;;;9.40;;
67776;SDS011;54576;52.020;5.536;2023-11-21T01:47:24;22.23;;;8.57;;
67776;SDS011;54576;52.020;5.536;2023-11-21T01:49:50;21.60;;;8.10;;
67776;SDS011;54576;52.020;5.536;2023-11-21T01:52:16;14.23;;;8.18;;
67776;SDS011;54576;52.020;5.536;2023-11-21T01:54:42;15.38;;;8.95;;
67776;SDS011;54576;52.020;5.536;2023-11-21T01:57:08;19.35;;;8.90;;
67776;SDS011;54576;52.020;5.536;2023-11-21T01:59:35;13.25;;;8.18;;
67776;SDS011;54576;52.020;5.536;2023-11-21T02:02:03;17.25;;;7.68;;
67776;SDS011;54576;52.020;5.536;2023-11-21T02:04:30;12.93;;;7.82;;
67776;SDS011;54576;52.020;5.536;2023-11-21T02:06:57;24.08;;;8.00;;
67776;SDS011;54576;52.020;5.536;2023-11-21T02:09:24;15.48;;;8.63;;
67776;SDS011;54576;52.020;5.536;2023-11-21T02:11:54;12.57;;;7.78;;
67776;SDS011;54576;52.020;5.536;2023-11-21T02:14:20;16.73;;;7.78;;
67776;SDS011;54576;52.020;5.536;2023-11-21T02:16:47;16.25;;;8.35;;
67776;SDS011;54576;52.020;5.536;2023-11-21T02:19:19;15.90;;;9.02;;
67776;SDS011;54576;52.020;5.536;2023-11-21T02:21:47;16.08;;;9.25;;
67776;SDS011;54576;52.020;5.536;2023-11-21T02:24:15;16.55;;;10.10;;
67776;SDS011;54576;52.020;5.536;2023-11-21T02:26:42;19.50;;;9.43;;
67776;SDS011;54576;52.020;5.536;2023-11-21T02:29:08;15.80;;;8.77;;
67776;SDS011;54576;52.020;5.536;2023-11-21T02:31:36;21.20;;;9.68;;
67776;SDS011;54576;52.020;5.536;2023-11-21T02:34:10;22.17;;;9.10;;
67776;SDS011;54576;52.020;5.536;2023-11-21T02:36:38;16.83;;;8.93;;
67776;SDS011;54576;52.020;5.536;2023-11-21T02:39:04;20.67;;;9.27;;
67776;SDS011;54576;52.020;5.536;2023-11-21T02:41:29;19.98;;;10.27;;
67776;SDS011;54576;52.020;5.536;2023-11-21T02:43:55;24.33;;;10.15;;
67776;SDS011;54576;52.020;5.536;2023-11-21T02:46:20;21.80;;;10.95;;
67776;SDS011;54576;52.020;5.536;2023-11-21T02:48:47;27.60;;;11.32;;
67776;SDS011;54576;52.020;5.536;2023-11-21T02:51:12;29.98;;;11.13;;
67776;SDS011;54576;52.020;5.536;2023-11-21T02:53:38;26.17;;;11.90;;
67776;SDS011;54576;52.020;5.536;2023-11-21T02:56:04;22.55;;;11.15;;
67776;SDS011;54576;52.020;5.536;2023-11-21T02:58:30;21.98;;;10.45;;
67776;SDS011;54576;52.020;5.536;2023-11-21T03:00:55;28.27;;;12.30;;
67776;SDS011;54576;52.020;5.536;2023-11-21T03:03:21;23.92;;;11.63;;
67776;SDS011;54576;52.020;5.536;2023-11-21T03:05:48;28.48;;;11.88;;
67776;SDS011;54576;52.020;5.536;2023-11-21T03:08:14;32.15;;;11.52;;
67776;SDS011;54576;52.020;5.536;2023-11-21T03:10:40;25.95;;;11.93;;
67776;SDS011;54576;52.020;5.536;2023-11-21T03:13:05;31.77;;;12.90;;
67776;SDS011;54576;52.020;5.536;2023-11-21T03:15:31;26.08;;;11.05;;
67776;SDS011;54576;52.020;5.536;2023-11-21T03:17:57;26.50;;;11.48;;
67776;SDS011;54576;52.020;5.536;2023-11-21T03:20:23;24.73;;;13.45;;
67776;SDS011;54576;52.020;5.536;2023-11-21T03:22:48;31.10;;;12.35;;
67776;SDS011;54576;52.020;5.536;2023-11-21T03:25:14;35.35;;;13.70;;
67776;SDS011;54576;52.020;5.536;2023-11-21T03:27:42;30.02;;;13.45;;
67776;SDS011;54576;52.020;5.536;2023-11-21T03:30:09;33.42;;;13.40;;
67776;SDS011;54576;52.020;5.536;2023-11-21T03:32:36;27.40;;;12.70;;
67776;SDS011;54576;52.020;5.536;2023-11-21T03:35:01;27.98;;;13.00;;
67776;SDS011;54576;52.020;5.536;2023-11-21T03:37:28;26.50;;;12.80;;
67776;SDS011;54576;52.020;5.536;2023-11-21T03:39:54;26.92;;;12.52;;
67776;SDS011;54576;52.020;5.536;2023-11-21T03:42:21;27.83;;;13.00;;
67776;SDS011;54576;52.020;5.536;2023-11-21T03:44:46;32.92;;;12.10;;
67776;SDS011;54576;52.020;5.536;2023-11-21T03:47:12;32.85;;;12.65;;
67776;SDS011;54576;52.020;5.536;2023-11-21T03:49:37;33.83;;;12.80;;
67776;SDS011;54576;52.020;5.536;2023-11-21T03:52:03;32.35;;;14.13;;
67776;SDS011;54576;52.020;5.536;2023-11-21T03:54:29;33.20;;;13.85;;
67776;SDS011;54576;52.020;5.536;2023-11-21T03:56:54;28.25;;;13.10;;
67776;SDS011;54576;52.020;5.536;2023-11-21T03:59:20;30.92;;;12.43;;
67776;SDS011;54576;52.020;5.536;2023-11-21T04:01:49;32.33;;;12.43;;
67776;SDS011;54576;52.020;5.536;2023-11-21T04:04:15;34.13;;;12.60;;
67776;SDS011;54576;52.020;5.536;2023-11-21T04:06:41;27.52;;;12.10;;
67776;SDS011;54576;52.020;5.536;2023-11-21T04:09:06;31.88;;;13.43;;
67776;SDS011;54576;52.020;5.536;2023-11-21T04:11:32;27.48;;;12.48;;
67776;SDS011;54576;52.020;5.536;2023-11-21T04:13:57;27.05;;;11.82;;
67776;SDS011;54576;52.020;5.536;2023-11-21T04:16:23;32.75;;;11.18;;
67776;SDS011;54576;52.020;5.536;2023-11-21T04:18:49;31.75;;;12.45;;
67776;SDS011;54576;52.020;5.536;2023-11-21T04:21:14;24.05;;;11.00;;
67776;SDS011;54576;52.020;5.536;2023-11-21T04:23:40;26.60;;;11.02;;
67776;SDS011;54576;52.020;5.536;2023-11-21T04:26:05;44.35;;;11.80;;
67776;SDS011;54576;52.020;5.536;2023-11-21T04:28:31;28.25;;;12.20;;
67776;SDS011;54576;52.020;5.536;2023-11-21T04:30:57;31.05;;;11.55;;
67776;SDS011;54576;52.020;5.536;2023-11-21T04:33:22;25.75;;;11.75;;
67776;SDS011;54576;52.020;5.536;2023-11-21T04:35:48;29.83;;;11.25;;
67776;SDS011;54576;52.020;5.536;2023-11-21T04:38:14;35.72;;;11.90;;
67776;SDS011;54576;52.020;5.536;2023-11-21T04:40:39;26.77;;;10.70;;
67776;SDS011;54576;52.020;5.536;2023-11-21T04:43:05;22.98;;;9.88;;
67776;SDS011;54576;52.020;5.536;2023-11-21T04:45:34;32.17;;;11.15;;
67776;SDS011;54576;52.020;5.536;2023-11-21T04:47:59;32.60;;;11.55;;
67776;SDS011;54576;52.020;5.536;2023-11-21T04:50:25;36.80;;;10.35;;
67776;SDS011;54576;52.020;5.536;2023-11-21T04:52:52;24.83;;;10.98;;
67776;SDS011;54576;52.020;5.536;2023-11-21T04:55:18;28.15;;;11.00;;
67776;SDS011;54576;52.020;5.536;2023-11-21T04:57:44;32.85;;;10.85;;
67776;SDS011;54576;52.020;5.536;2023-11-21T05:00:10;33.58;;;11.32;;
67776;SDS011;54576;52.020;5.536;2023-11-21T05:02:37;38.92;;;11.70;;
67776;SDS011;54576;52.020;5.536;2023-11-21T05:05:03;28.35;;;11.40;;
67776;SDS011;54576;52.020;5.536;2023-11-21T05:07:30;29.83;;;10.63;;
67776;SDS011;54576;52.020;5.536;2023-11-21T05:09:57;29.90;;;11.23;;
67776;SDS011;54576;52.020;5.536;2023-11-21T05:12:23;38.22;;;12.20;;
67776;SDS011;54576;52.020;5.536;2023-11-21T05:14:49;22.77;;;10.90;;
67776;SDS011;54576;52.020;5.536;2023-11-21T05:17:15;32.80;;;11.13;;
67776;SDS011;54576;52.020;5.536;2023-11-21T05:19:41;27.27;;;10.85;;
67776;SDS011;54576;52.020;5.536;2023-11-21T05:22:08;36.33;;;12.13;;
67776;SDS011;54576;52.020;5.536;2023-11-21T05:24:33;22.65;;;11.48;;
67776;SDS011;54576;52.020;5.536;2023-11-21T05:27:00;24.83;;;10.93;;
67776;SDS011;54576;52.020;5.536;2023-11-21T05:29:25;32.65;;;11.45;;
67776;SDS011;54576;52.020;5.536;2023-11-21T05:31:51;26.20;;;12.00;;
67776;SDS011;54576;52.020;5.536;2023-11-21T05:34:18;28.17;;;9.40;;
67776;SDS011;54576;52.020;5.536;2023-11-21T05:36:43;33.78;;;11.55;;
67776;SDS011;54576;52.020;5.536;2023-11-21T05:39:10;39.45;;;11.75;;
67776;SDS011;54576;52.020;5.536;2023-11-21T05:41:36;32.63;;;11.23;;
67776;SDS011;54576;52.020;5.536;2023-11-21T05:44:02;30.23;;;12.07;;
67776;SDS011;54576;52.020;5.536;2023-11-21T05:46:27;37.00;;;11.80;;
67776;SDS011;54576;52.020;5.536;2023-11-21T05:48:53;40.60;;;11.57;;
67776;SDS011;54576;52.020;5.536;2023-11-21T05:51:19;38.00;;;12.02;;
67776;SDS011;54576;52.020;5.536;2023-11-21T05:53:45;35.08;;;11.90;;
67776;SDS011;54576;52.020;5.536;2023-11-21T05:56:11;30.50;;;11.95;;
67776;SDS011;54576;52.020;5.536;2023-11-21T05:58:38;34.35;;;11.85;;
67776;SDS011;54576;52.020;5.536;2023-11-21T06:01:05;40.25;;;12.23;;
67776;SDS011;54576;52.020;5.536;2023-11-21T06:03:37;27.27;;;10.15;;
67776;SDS011;54576;52.020;5.536;2023-11-21T06:06:03;34.60;;;11.27;;
67776;SDS011;54576;52.020;5.536;2023-11-21T06:08:29;47.47;;;11.93;;
67776;SDS011;54576;52.020;5.536;2023-11-21T06:10:55;43.13;;;12.45;;
67776;SDS011;54576;52.020;5.536;2023-11-21T06:13:20;38.25;;;12.02;;
67776;SDS011;54576;52.020;5.536;2023-11-21T06:15:49;36.15;;;12.18;;
67776;SDS011;54576;52.020;5.536;2023-11-21T06:18:15;35.22;;;12.82;;
67776;SDS011;54576;52.020;5.536;2023-11-21T06:20:41;27.20;;;10.45;;
67776;SDS011;54576;52.020;5.536;2023-11-21T06:23:06;22.63;;;10.73;;
67776;SDS011;54576;52.020;5.536;2023-11-21T06:25:32;39.92;;;10.75;;
67776;SDS011;54576;52.020;5.536;2023-11-21T06:30:27;35.60;;;12.35;;
67776;SDS011;54576;52.020;5.536;2023-11-21T06:32:53;40.78;;;13.27;;
67776;SDS011;54576;52.020;5.536;2023-11-21T06:35:20;44.85;;;13.45;;
67776;SDS011;54576;52.020;5.536;2023-11-21T06:37:45;34.50;;;13.57;;
67776;SDS011;54576;52.020;5.536;2023-11-21T06:40:14;39.33;;;13.35;;
67776;SDS011;54576;52.020;5.536;2023-11-21T06:42:40;37.55;;;13.27;;
67776;SDS011;54576;52.020;5.536;2023-11-21T06:45:06;31.33;;;12.93;;
67776;SDS011;54576;52.020;5.536;2023-11-21T06:47:32;36.03;;;12.50;;
67776;SDS011;54576;52.020;5.536;2023-11-21T06:49:58;35.70;;;13.18;;
67776;SDS011;54576;52.020;5.536;2023-11-21T06:52:25;41.00;;;15.18;;
67776;SDS011;54576;52.020;5.536;2023-11-21T06:54:50;30.45;;;13.35;;
67776;SDS011;54576;52.020;5.536;2023-11-21T06:57:16;40.88;;;13.77;;
67776;SDS011;54576;52.020;5.536;2023-11-21T06:59:42;39.63;;;14.68;;
67776;SDS011;54576;52.020;5.536;2023-11-21T07:02:08;33.65;;;13.63;;
67776;SDS011;54576;52.020;5.536;2023-11-21T07:04:34;41.05;;;14.02;;
67776;SDS011;54576;52.020;5.536;2023-11-21T07:07:01;36.40;;;14.90;;
67776;SDS011;54576;52.020;5.536;2023-11-21T07:09:29;40.60;;;15.80;;
67776;SDS011;54576;52.020;5.536;2023-11-21T07:11:56;35.95;;;14.63;;
67776;SDS011;54576;52.020;5.536;2023-11-21T07:14:21;43.25;;;14.70;;
67776;SDS011;54576;52.020;5.536;2023-11-21T07:16:47;32.92;;;14.18;;
67776;SDS011;54576;52.020;5.536;2023-11-21T07:19:12;37.38;;;15.10;;
67776;SDS011;54576;52.020;5.536;2023-11-21T07:21:39;41.97;;;16.20;;
67776;SDS011;54576;52.020;5.536;2023-11-21T07:24:05;43.10;;;15.07;;
67776;SDS011;54576;52.020;5.536;2023-11-21T07:26:32;36.63;;;14.55;;
67776;SDS011;54576;52.020;5.536;2023-11-21T07:28:58;36.95;;;15.65;;
67776;SDS011;54576;52.020;5.536;2023-11-21T07:31:24;39.90;;;15.38;;
67776;SDS011;54576;52.020;5.536;2023-11-21T07:33:50;46.10;;;16.63;;
67776;SDS011;54576;52.020;5.536;2023-11-21T07:36:16;37.40;;;14.38;;
67776;SDS011;54576;52.020;5.536;2023-11-21T07:38:48;40.40;;;14.70;;
67776;SDS011;54576;52.020;5.536;2023-11-21T07:41:14;46.53;;;12.95;;
67776;SDS011;54576;52.020;5.536;2023-11-21T07:43:43;37.53;;;12.98;;
67776;SDS011;54576;52.020;5.536;2023-11-21T07:46:09;35.35;;;13.18;;
67776;SDS011;54576;52.020;5.536;2023-11-21T07:48:37;38.65;;;13.52;;
67776;SDS011;54576;52.020;5.536;2023-11-21T07:51:04;30.83;;;12.98;;
67776;SDS011;54576;52.020;5.536;2023-11-21T07:53:29;29.38;;;13.43;;
67776;SDS011;54576;52.020;5.536;2023-11-21T07:55:55;32.60;;;12.57;;
67776;SDS011;54576;52.020;5.536;2023-11-21T07:58:21;29.27;;;12.15;;
67776;SDS011;54576;52.020;5.536;2023-11-21T08:00:47;31.15;;;13.27;;
67776;SDS011;54576;52.020;5.536;2023-11-21T08:03:13;33.47;;;12.05;;
67776;SDS011;54576;52.020;5.536;2023-11-21T08:05:39;26.23;;;12.93;;
67776;SDS011;54576;52.020;5.536;2023-11-21T08:08:05;31.77;;;12.43;;
67776;SDS011;54576;52.020;5.536;2023-11-21T08:10:31;25.98;;;11.73;;
67776;SDS011;54576;52.020;5.536;2023-11-21T08:12:56;34.55;;;11.98;;
67776;SDS011;54576;52.020;5.536;2023-11-21T08:15:22;35.28;;;12.10;;
67776;SDS011;54576;52.020;5.536;2023-11-21T08:17:47;33.30;;;12.38;;
67776;SDS011;54576;52.020;5.536;2023-11-21T08:20:13;29.98;;;12.63;;
67776;SDS011;54576;52.020;5.536;2023-11-21T08:22:43;28.50;;;11.82;;
67776;SDS011;54576;52.020;5.536;2023-11-21T08:25:09;33.63;;;12.95;;
67776;SDS011;54576;52.020;5.536;2023-11-21T08:27:35;32.85;;;13.05;;
67776;SDS011;54576;52.020;5.536;2023-11-21T08:30:02;31.70;;;11.98;;
67776;SDS011;54576;52.020;5.536;2023-11-21T08:32:28;29.45;;;11.55;;
67776;SDS011;54576;52.020;5.536;2023-11-21T08:34:57;33.55;;;11.85;;
67776;SDS011;54576;52.020;5.536;2023-11-21T08:37:22;43.03;;;14.82;;
67776;SDS011;54576;52.020;5.536;2023-11-21T08:39:48;40.60;;;13.50;;
67776;SDS011;54576;52.020;5.536;2023-11-21T08:42:14;39.60;;;14.88;;
67776;SDS011;54576;52.020;5.536;2023-11-21T08:44:40;25.58;;;12.55;;
67776;SDS011;54576;52.020;5.536;2023-11-21T08:47:06;27.88;;;12.50;;
67776;SDS011;54576;52.020;5.536;2023-11-21T08:49:32;32.90;;;11.20;;
67776;SDS011;54576;52.020;5.536;2023-11-21T08:51:57;36.65;;;12.27;;
67776;SDS011;54576;52.020;5.536;2023-11-21T08:54:26;38.67;;;12.68;;
67776;SDS011;54576;52.020;5.536;2023-11-21T08:56:52;31.65;;;11.07;;
67776;SDS011;54576;52.020;5.536;2023-11-21T08:59:19;36.15;;;10.70;;
67776;SDS011;54576;52.020;5.536;2023-11-21T09:01:45;37.88;;;11.45;;
67776;SDS011;54576;52.020;5.536;2023-11-21T09:04:11;21.25;;;8.98;;
67776;SDS011;54576;52.020;5.536;2023-11-21T09:06:38;15.38;;;7.55;;
67776;SDS011;54576;52.020;5.536;2023-11-21T09:09:04;29.23;;;9.15;;
67776;SDS011;54576;52.020;5.536;2023-11-21T09:11:31;24.65;;;9.55;;
67776;SDS011;54576;52.020;5.536;2023-11-21T09:13:58;22.50;;;9.15;;
67776;SDS011;54576;52.020;5.536;2023-11-21T09:16:25;25.35;;;9.40;;
67776;SDS011;54576;52.020;5.536;2023-11-21T09:18:50;23.33;;;10.48;;
67776;SDS011;54576;52.020;5.536;2023-11-21T09:21:16;19.95;;;9.90;;
67776;SDS011;54576;52.020;5.536;2023-11-21T09:23:43;29.38;;;9.43;;
67776;SDS011;54576;52.020;5.536;2023-11-21T09:26:09;26.30;;;10.63;;
67776;SDS011;54576;52.020;5.536;2023-11-21T09:28:35;28.20;;;11.50;;
67776;SDS011;54576;52.020;5.536;2023-11-21T09:31:02;26.10;;;10.20;;
67776;SDS011;54576;52.020;5.536;2023-11-21T09:33:30;26.20;;;11.55;;
67776;SDS011;54576;52.020;5.536;2023-11-21T09:35:56;16.38;;;10.35;;
67776;SDS011;54576;52.020;5.536;2023-11-21T09:38:22;25.17;;;11.02;;
67776;SDS011;54576;52.020;5.536;2023-11-21T09:40:48;16.60;;;10.38;;
67776;SDS011;54576;52.020;5.536;2023-11-21T09:43:18;19.85;;;11.00;;
67776;SDS011;54576;52.020;5.536;2023-11-21T09:45:47;23.60;;;11.35;;
67776;SDS011;54576;52.020;5.536;2023-11-21T09:48:18;22.85;;;10.82;;
67776;SDS011;54576;52.020;5.536;2023-11-21T09:50:46;21.70;;;11.63;;
67776;SDS011;54576;52.020;5.536;2023-11-21T09:53:13;21.63;;;12.00;;
67776;SDS011;54576;52.020;5.536;2023-11-21T09:55:47;23.38;;;11.25;;
67776;SDS011;54576;52.020;5.536;2023-11-21T09:58:16;24.98;;;12.40;;
67776;SDS011;54576;52.020;5.536;2023-11-21T10:00:43;26.30;;;11.63;;
67776;SDS011;54576;52.020;5.536;2023-11-21T10:03:10;25.02;;;11.18;;
67776;SDS011;54576;52.020;5.536;2023-11-21T10:05:40;26.63;;;12.75;;
67776;SDS011;54576;52.020;5.536;2023-11-21T10:08:10;21.38;;;11.65;;
67776;SDS011;54576;52.020;5.536;2023-11-21T10:10:37;35.95;;;11.57;;
67776;SDS011;54576;52.020;5.536;2023-11-21T10:13:09;20.00;;;11.13;;
67776;SDS011;54576;52.020;5.536;2023-11-21T10:15:41;20.20;;;11.38;;
67776;SDS011;54576;52.020;5.536;2023-11-21T10:18:13;25.67;;;12.07;;
67776;SDS011;54576;52.020;5.536;2023-11-21T10:20:40;23.67;;;11.60;;
67776;SDS011;54576;52.020;5.536;2023-11-21T10:23:06;28.08;;;12.07;;
67776;SDS011;54576;52.020;5.536;2023-11-21T10:25:36;16.38;;;10.45;;
67776;SDS011;54576;52.020;5.536;2023-11-21T10:28:02;21.13;;;11.18;;
67776;SDS011;54576;52.020;5.536;2023-11-21T10:30:35;18.52;;;10.10;;
67776;SDS011;54576;52.020;5.536;2023-11-21T10:33:02;21.77;;;11.80;;
67776;SDS011;54576;52.020;5.536;2023-11-21T10:35:40;21.42;;;11.80;;
67776;SDS011;54576;52.020;5.536;2023-11-21T10:38:07;23.85;;;12.65;;
67776;SDS011;54576;52.020;5.536;2023-11-21T10:40:38;24.92;;;12.27;;
67776;SDS011;54576;52.020;5.536;2023-11-21T10:43:10;21.70;;;11.63;;
67776;SDS011;54576;52.020;5.536;2023-11-21T10:45:43;20.20;;;12.02;;
67776;SDS011;54576;52.020;5.536;2023-11-21T10:48:10;23.70;;;12.43;;
67776;SDS011;54576;52.020;5.536;2023-11-21T10:50:43;19.15;;;11.65;;
67776;SDS011;54576;52.020;5.536;2023-11-21T10:53:12;18.80;;;11.52;;
67776;SDS011;54576;52.020;5.536;2023-11-21T10:55:38;19.70;;;11.30;;
67776;SDS011;54576;52.020;5.536;2023-11-21T10:58:03;19.17;;;12.00;;
67776;SDS011;54576;52.020;5.536;2023-11-21T11:00:33;16.30;;;10.90;;
67776;SDS011;54576;52.020;5.536;2023-11-21T11:02:59;14.50;;;9.40;;
67776;SDS011;54576;52.020;5.536;2023-11-21T11:05:26;15.40;;;7.57;;
67776;SDS011;54576;52.020;5.536;2023-11-21T11:08:04;15.35;;;9.93;;
67776;SDS011;54576;52.020;5.536;2023-11-21T11:10:30;14.73;;;9.38;;
67776;SDS011;54576;52.020;5.536;2023-11-21T11:12:57;16.42;;;9.75;;
67776;SDS011;54576;52.020;5.536;2023-11-21T11:15:24;17.83;;;9.65;;
67776;SDS011;54576;52.020;5.536;2023-11-21T11:17:51;16.70;;;9.35;;
67776;SDS011;54576;52.020;5.536;2023-11-21T11:20:17;16.20;;;8.80;;
67776;SDS011;54576;52.020;5.536;2023-11-21T11:31:45;9.45;;;6.05;;
67776;SDS011;54576;52.020;5.536;2023-11-21T11:34:32;9.57;;;6.57;;
67776;SDS011;54576;52.020;5.536;2023-11-21T11:37:03;13.07;;;6.80;;
67776;SDS011;54576;52.020;5.536;2023-11-21T11:42:02;12.23;;;7.33;;
67776;SDS011;54576;52.020;5.536;2023-11-21T11:47:23;7.80;;;5.03;;
67776;SDS011;54576;52.020;5.536;2023-11-21T11:50:01;12.25;;;5.68;;
67776;SDS011;54576;52.020;5.536;2023-11-21T11:55:12;10.38;;;5.70;;
67776;SDS011;54576;52.020;5.536;2023-11-21T11:57:40;8.95;;;5.63;;
67776;SDS011;54576;52.020;5.536;2023-11-21T12:02:35;12.65;;;6.55;;
67776;SDS011;54576;52.020;5.536;2023-11-21T12:05:11;10.18;;;6.78;;
67776;SDS011;54576;52.020;5.536;2023-11-21T12:10:18;13.55;;;7.63;;
67776;SDS011;54576;52.020;5.536;2023-11-21T12:12:52;10.82;;;7.10;;
67776;SDS011;54576;52.020;5.536;2023-11-21T12:15:23;17.65;;;8.30;;
67776;SDS011;54576;52.020;5.536;2023-11-21T12:17:49;14.30;;;7.75;;
67776;SDS011;54576;52.020;5.536;2023-11-21T12:20:16;12.35;;;7.13;;
67776;SDS011;54576;52.020;5.536;2023-11-21T12:22:45;11.38;;;6.90;;
67776;SDS011;54576;52.020;5.536;2023-11-21T12:25:15;10.63;;;6.45;;
67776;SDS011;54576;52.020;5.536;2023-11-21T12:27:48;10.85;;;7.15;;
67776;SDS011;54576;52.020;5.536;2023-11-21T12:30:16;14.60;;;7.38;;
67776;SDS011;54576;52.020;5.536;2023-11-21T12:32:43;11.63;;;7.73;;
67776;SDS011;54576;52.020;5.536;2023-11-21T12:35:12;13.85;;;7.25;;
67776;SDS011;54576;52.020;5.536;2023-11-21T12:37:39;11.82;;;7.20;;
67776;SDS011;54576;52.020;5.536;2023-11-21T12:40:06;11.70;;;7.28;;
67776;SDS011;54576;52.020;5.536;2023-11-21T12:42:37;14.88;;;8.00;;
67776;SDS011;54576;52.020;5.536;2023-11-21T12:47:42;14.13;;;8.07;;
67776;SDS011;54576;52.020;5.536;2023-11-21T12:50:09;18.95;;;9.30;;
67776;SDS011;54576;52.020;5.536;2023-11-21T12:52:44;16.40;;;8.13;;
67776;SDS011;54576;52.020;5.536;2023-11-21T12:55:15;13.13;;;8.00;;
67776;SDS011;54576;52.020;5.536;2023-11-21T12:57:42;12.25;;;7.28;;
67776;SDS011;54576;52.020;5.536;2023-11-21T13:00:08;13.00;;;7.40;;
67776;SDS011;54576;52.020;5.536;2023-11-21T13:02:49;13.93;;;7.85;;
67776;SDS011;54576;52.020;5.536;2023-11-21T13:05:26;23.25;;;8.45;;
67776;SDS011;54576;52.020;5.536;2023-11-21T13:07:53;19.90;;;8.35;;
67776;SDS011;54576;52.020;5.536;2023-11-21T13:10:24;25.70;;;8.32;;
67776;SDS011;54576;52.020;5.536;2023-11-21T13:12:59;17.42;;;9.75;;
67776;SDS011;54576;52.020;5.536;2023-11-21T13:15:28;20.40;;;9.18;;
67776;SDS011;54576;52.020;5.536;2023-11-21T13:17:56;31.52;;;10.48;;
67776;SDS011;54576;52.020;5.536;2023-11-21T13:20:22;17.98;;;9.35;;
67776;SDS011;54576;52.020;5.536;2023-11-21T13:22:49;19.75;;;8.98;;
67776;SDS011;54576;52.020;5.536;2023-11-21T13:25:18;15.15;;;9.27;;
67776;SDS011;54576;52.020;5.536;2023-11-21T13:27:44;13.05;;;8.70;;
67776;SDS011;54576;52.020;5.536;2023-11-21T13:30:11;15.70;;;9.75;;
67776;SDS011;54576;52.020;5.536;2023-11-21T13:32:41;17.13;;;8.85;;
67776;SDS011;54576;52.020;5.536;2023-11-21T13:35:08;13.23;;;8.88;;
67776;SDS011;54576;52.020;5.536;2023-11-21T13:37:40;13.73;;;8.73;;
67776;SDS011;54576;52.020;5.536;2023-11-21T13:40:06;16.25;;;8.93;;
67776;SDS011;54576;52.020;5.536;2023-11-21T13:42:39;13.10;;;8.70;;
67776;SDS011;54576;52.020;5.536;2023-11-21T13:45:06;19.13;;;9.25;;
67776;SDS011;54576;52.020;5.536;2023-11-21T13:47:32;16.65;;;8.98;;
67776;SDS011;54576;52.020;5.536;2023-11-21T13:49:59;29.95;;;18.52;;
67776;SDS011;54576;52.020;5.536;2023-11-21T13:52:25;22.02;;;13.15;;
67776;SDS011;54576;52.020;5.536;2023-11-21T13:54:54;14.75;;;8.80;;
67776;SDS011;54576;52.020;5.536;2023-11-21T13:57:21;16.83;;;8.27;;
67776;SDS011;54576;52.020;5.536;2023-11-21T13:59:47;16.77;;;8.80;;
67776;SDS011;54576;52.020;5.536;2023-11-21T14:02:12;16.52;;;9.15;;
67776;SDS011;54576;52.020;5.536;2023-11-21T14:04:43;24.40;;;13.52;;
67776;SDS011;54576;52.020;5.536;2023-11-21T14:07:14;20.08;;;12.07;;
67776;SDS011;54576;52.020;5.536;2023-11-21T14:09:55;10.52;;;6.15;;
67776;SDS011;54576;52.020;5.536;2023-11-21T14:12:21;8.65;;;5.20;;
67776;SDS011;54576;52.020;5.536;2023-11-21T14:14:46;14.43;;;5.22;;
67776;SDS011;54576;52.020;5.536;2023-11-21T14:17:12;8.75;;;5.35;;
67776;SDS011;54576;52.020;5.536;2023-11-21T14:19:38;8.52;;;5.28;;
67776;SDS011;54576;52.020;5.536;2023-11-21T14:22:08;13.13;;;7.72;;
67776;SDS011;54576;52.020;5.536;2023-11-21T14:24:34;9.63;;;5.80;;
67776;SDS011;54576;52.020;5.536;2023-11-21T14:27:00;9.25;;;5.75;;
67776;SDS011;54576;52.020;5.536;2023-11-21T14:29:26;12.80;;;5.95;;
67776;SDS011;54576;52.020;5.536;2023-11-21T14:31:52;9.38;;;6.20;;
67776;SDS011;54576;52.020;5.536;2023-11-21T14:34:21;11.02;;;7.03;;
67776;SDS011;54576;52.020;5.536;2023-11-21T14:36:47;15.07;;;7.68;;
67776;SDS011;54576;52.020;5.536;2023-11-21T14:39:14;15.63;;;9.27;;
67776;SDS011;54576;52.020;5.536;2023-11-21T14:41:51;17.80;;;8.88;;
67776;SDS011;54576;52.020;5.536;2023-11-21T14:44:18;13.93;;;8.52;;
67776;SDS011;54576;52.020;5.536;2023-11-21T14:46:45;18.75;;;8.90;;
67776;SDS011;54576;52.020;5.536;2023-11-21T14:49:14;15.10;;;9.98;;
67776;SDS011;54576;52.020;5.536;2023-11-21T14:51:47;11.13;;;6.88;;